createdAt,value
2018-08-25T00:00:07.417Z,2.00
2018-08-25T00:02:12.424Z,1.50
2018-08-25T00:04:16.314Z,1.93
2018-08-25T00:06:20.326Z,1.70
2018-08-25T00:08:24.793Z,1.67
2018-08-25T00:10:28.546Z,2.20
2018-08-25T00:12:36.078Z,2.10
2018-08-25T00:14:40.685Z,1.90
2018-08-25T00:16:44.887Z,1.63
2018-08-25T00:18:49.234Z,1.97
2018-08-25T00:20:53.639Z,1.83
2018-08-25T00:22:57.444Z,1.67
2018-08-25T00:25:01.228Z,2.07
2018-08-25T00:27:06.055Z,1.93
2018-08-25T00:29:11.538Z,1.90
2018-08-25T00:31:20.725Z,1.87
2018-08-25T00:33:25.016Z,1.80
2018-08-25T00:35:29.021Z,1.90
2018-08-25T00:37:32.951Z,1.70
2018-08-25T00:39:37.302Z,1.50
2018-08-25T00:41:42.518Z,1.43
2018-08-25T00:43:47.425Z,1.50
2018-08-25T00:45:52.644Z,1.97
2018-08-25T00:47:56.993Z,1.60
2018-08-25T00:50:00.747Z,1.80
2018-08-25T00:52:04.936Z,1.80
2018-08-25T00:54:09.547Z,1.83
2018-08-25T00:56:15.377Z,1.60
2018-08-25T00:58:19.654Z,1.73
2018-08-25T01:00:25.245Z,2.00
2018-08-25T01:02:29.001Z,1.53
2018-08-25T01:04:34.190Z,1.87
2018-08-25T01:06:38.764Z,1.60
2018-08-25T01:08:42.696Z,1.90
2018-08-25T01:10:46.982Z,2.30
2018-08-25T01:12:50.954Z,1.83
2018-08-25T01:14:54.844Z,1.90
2018-08-25T01:16:59.545Z,2.17
2018-08-25T01:19:03.518Z,2.03
2018-08-25T01:21:07.342Z,1.90
2018-08-25T01:23:11.629Z,2.10
2018-08-25T01:25:16.142Z,2.10
2018-08-25T01:27:20.086Z,2.17
2018-08-25T01:29:26.201Z,1.73
2018-08-25T01:31:31.261Z,2.40
2018-08-25T01:33:39.579Z,2.03
2018-08-25T01:35:45.310Z,2.10
2018-08-25T01:37:49.717Z,1.97
2018-08-25T01:39:54.865Z,2.27
2018-08-25T01:41:59.167Z,2.20
2018-08-25T01:44:02.967Z,2.30
2018-08-25T01:46:06.797Z,2.33
2018-08-25T01:48:10.765Z,1.90
2018-08-25T01:50:16.343Z,2.20
2018-08-25T01:52:20.135Z,2.10
2018-08-25T01:54:24.543Z,2.07
2018-08-25T01:56:28.958Z,2.13
2018-08-25T01:58:32.825Z,2.00
2018-08-25T02:00:39.098Z,1.90
2018-08-25T02:02:43.863Z,1.83
2018-08-25T02:04:48.976Z,2.10
2018-08-25T02:06:54.121Z,1.87
2018-08-25T02:08:58.572Z,1.90
2018-08-25T02:11:04.157Z,1.83
2018-08-25T02:13:08.015Z,2.40
2018-08-25T02:15:14.906Z,2.00
2018-08-25T02:17:20.148Z,1.83
2018-08-25T02:19:24.324Z,2.23
2018-08-25T02:21:28.156Z,1.80
2018-08-25T02:23:32.137Z,1.93
2018-08-25T02:25:43.713Z,1.90
2018-08-25T02:27:47.523Z,2.00
2018-08-25T02:29:53.436Z,1.77
2018-08-25T02:31:57.760Z,1.90
2018-08-25T02:34:02.397Z,2.03
2018-08-25T02:36:06.969Z,2.30
2018-08-25T02:38:10.769Z,2.20
2018-08-25T02:40:14.734Z,1.90
2018-08-25T02:42:18.515Z,1.87
2018-08-25T02:44:22.888Z,1.97
2018-08-25T02:46:26.890Z,2.07
2018-08-25T02:48:30.612Z,2.23
2018-08-25T02:50:34.801Z,1.97
2018-08-25T02:52:38.776Z,1.80
2018-08-25T02:54:42.613Z,2.10
2018-08-25T02:56:46.790Z,1.73
2018-08-25T02:58:50.615Z,1.83
2018-08-25T03:00:54.430Z,2.00
2018-08-25T03:02:58.512Z,1.80
2018-08-25T03:05:02.348Z,1.93
2018-08-25T03:07:06.249Z,2.30
2018-08-25T03:09:11.849Z,2.10
2018-08-25T03:11:15.865Z,1.90
2018-08-25T03:13:19.744Z,1.80
2018-08-25T03:15:24.789Z,2.00
2018-08-25T03:17:28.627Z,2.10
2018-08-25T03:19:32.413Z,2.07
2018-08-25T03:21:37.775Z,2.00
2018-08-25T03:23:41.624Z,1.90
2018-08-25T03:25:45.500Z,2.13
2018-08-25T03:27:50.677Z,2.43
2018-08-25T03:29:54.475Z,2.50
2018-08-25T03:31:58.325Z,2.50
2018-08-25T03:34:02.137Z,2.50
2018-08-25T03:36:05.931Z,2.00
2018-08-25T03:38:09.820Z,2.50
2018-08-25T03:40:14.982Z,2.40
2018-08-25T03:42:18.755Z,2.30
2018-08-25T03:44:22.659Z,2.87
2018-08-25T03:46:27.041Z,2.80
2018-08-25T03:48:30.858Z,2.90
2018-08-25T03:50:34.761Z,2.73
2018-08-25T03:52:38.985Z,2.50
2018-08-25T03:54:42.985Z,2.70
2018-08-25T03:56:46.885Z,2.70
2018-08-25T03:58:50.820Z,3.03
2018-08-25T04:00:54.639Z,3.00
2018-08-25T04:02:59.014Z,2.40
2018-08-25T04:05:03.478Z,2.70
2018-08-25T04:07:07.408Z,2.93
2018-08-25T04:09:13.821Z,3.10
2018-08-25T04:11:18.208Z,2.63
2018-08-25T04:13:21.955Z,2.47
2018-08-25T04:15:25.841Z,2.97
2018-08-25T04:17:30.919Z,2.07
2018-08-25T04:19:34.833Z,2.90
2018-08-25T04:21:38.652Z,2.40
2018-08-25T04:23:43.710Z,2.80
2018-08-25T04:25:47.630Z,2.70
2018-08-25T04:27:51.553Z,2.67
2018-08-25T04:29:56.172Z,3.13
2018-08-25T04:31:59.947Z,2.57
2018-08-25T04:34:03.750Z,2.60
2018-08-25T04:36:08.123Z,2.50
2018-08-25T04:38:11.970Z,2.57
2018-08-25T04:40:15.762Z,2.97
2018-08-25T04:42:19.959Z,2.73
2018-08-25T04:44:24.682Z,3.00
2018-08-25T04:46:28.504Z,3.10
2018-08-25T04:48:32.610Z,2.87
2018-08-25T04:50:37.094Z,3.00
2018-08-25T04:52:41.143Z,2.53
2018-08-25T04:54:45.316Z,2.80
2018-08-25T04:56:49.595Z,2.60
2018-08-25T04:58:53.484Z,2.80
2018-08-25T05:00:57.757Z,3.13
2018-08-25T05:03:01.614Z,3.27
2018-08-25T05:05:05.553Z,2.57
2018-08-25T05:07:09.768Z,2.80
2018-08-25T05:09:13.633Z,2.97
2018-08-25T05:11:17.510Z,2.70
2018-08-25T05:13:21.607Z,3.17
2018-08-25T05:15:25.482Z,3.73
2018-08-25T05:17:29.280Z,2.93
2018-08-25T05:19:33.096Z,3.03
2018-08-25T05:21:36.928Z,3.33
2018-08-25T05:23:42.157Z,2.93
2018-08-25T05:25:47.319Z,3.47
2018-08-25T05:27:51.244Z,3.10
2018-08-25T05:29:55.007Z,2.83
2018-08-25T05:31:59.235Z,3.17
2018-08-25T05:34:03.076Z,2.93
2018-08-25T05:36:09.346Z,2.47
2018-08-25T05:38:13.527Z,2.93
2018-08-25T05:40:18.298Z,2.30
2018-08-25T05:42:22.115Z,2.70
2018-08-25T05:44:25.909Z,3.00
2018-08-25T05:46:29.822Z,2.63
2018-08-25T05:48:33.569Z,2.80
2018-08-25T05:50:37.692Z,3.23
2018-08-25T05:52:41.601Z,2.90
2018-08-25T05:54:46.169Z,2.60
2018-08-25T05:56:51.593Z,2.70
2018-08-25T05:58:55.510Z,2.83
2018-08-25T06:00:59.424Z,2.80
2018-08-25T06:03:04.173Z,2.80
2018-08-25T06:05:07.997Z,3.17
2018-08-25T06:07:12.264Z,2.50
2018-08-25T06:09:17.703Z,2.93
2018-08-25T06:11:21.605Z,2.67
2018-08-25T06:13:25.532Z,2.80
2018-08-25T06:15:32.774Z,3.10
2018-08-25T06:17:36.673Z,3.07
2018-08-25T06:19:41.677Z,2.83
2018-08-25T06:21:46.877Z,2.97
2018-08-25T06:23:50.786Z,3.00
2018-08-25T06:25:54.706Z,3.07
2018-08-25T06:27:59.060Z,2.70
2018-08-25T06:32:10.282Z,2.80
2018-08-25T06:34:14.127Z,2.90
2018-08-25T06:36:17.957Z,3.57
2018-08-25T06:38:21.883Z,2.97
2018-08-25T06:40:27.952Z,3.47
2018-08-25T06:42:33.780Z,3.30
2018-08-25T06:44:37.639Z,2.67
2018-08-25T06:46:42.011Z,3.43
2018-08-25T06:48:45.864Z,3.10
2018-08-25T06:50:49.734Z,2.60
2018-08-25T06:52:54.419Z,2.67
2018-08-25T06:54:58.268Z,3.13
2018-08-25T06:57:04.008Z,3.20
2018-08-25T06:59:08.140Z,3.00
2018-08-25T07:01:12.713Z,3.00
2018-08-25T07:03:16.543Z,3.50
2018-08-25T07:05:21.706Z,3.37
2018-08-25T07:07:25.866Z,3.13
2018-08-25T07:09:29.687Z,3.07
2018-08-25T07:11:36.026Z,3.37
2018-08-25T07:13:40.029Z,3.50
2018-08-25T07:15:44.051Z,3.30
2018-08-25T07:17:47.935Z,3.43
2018-08-25T07:19:52.776Z,3.20
2018-08-25T07:21:57.539Z,3.20
2018-08-25T07:24:01.849Z,3.37
2018-08-25T07:26:06.336Z,3.40
2018-08-25T07:28:10.167Z,3.23
2018-08-25T07:30:14.281Z,3.70
2018-08-25T07:32:18.250Z,3.27
2018-08-25T07:34:22.488Z,3.77
2018-08-25T07:36:27.262Z,3.80
2018-08-25T07:38:31.098Z,3.73
2018-08-25T07:40:34.974Z,3.83
2018-08-25T07:42:39.235Z,3.50
2018-08-25T07:44:44.919Z,3.37
2018-08-25T07:46:48.717Z,3.47
2018-08-25T07:48:52.936Z,3.90
2018-08-25T07:50:58.261Z,3.70
2018-08-25T07:53:02.346Z,3.47
2018-08-25T07:55:06.541Z,3.97
2018-08-25T07:57:10.335Z,3.20
2018-08-25T07:59:14.840Z,3.53
2018-08-25T08:01:18.890Z,3.97
2018-08-25T08:03:22.790Z,3.60
2018-08-25T08:05:26.651Z,3.90
2018-08-25T08:07:30.776Z,4.23
2018-08-25T08:09:35.602Z,4.07
2018-08-25T08:11:40.429Z,4.20
2018-08-25T08:13:44.907Z,3.70
2018-08-25T08:15:49.539Z,3.57
2018-08-25T08:17:53.386Z,4.13
2018-08-25T08:19:58.853Z,3.50
2018-08-25T08:22:02.714Z,3.00
2018-08-25T08:24:07.060Z,3.70
2018-08-25T08:26:11.499Z,3.50
2018-08-25T08:28:17.261Z,3.43
2018-08-25T08:30:23.263Z,3.30
2018-08-25T08:32:28.868Z,2.53
2018-08-25T08:34:32.714Z,2.70
2018-08-25T08:36:36.630Z,2.77
2018-08-25T08:38:42.378Z,2.90
2018-08-25T08:40:49.223Z,3.13
2018-08-25T08:42:53.091Z,3.03
2018-08-25T08:44:57.252Z,2.90
2018-08-25T08:47:01.240Z,3.23
2018-08-25T08:49:08.650Z,2.60
2018-08-25T08:51:13.968Z,2.50
2018-08-25T08:53:18.426Z,2.80
2018-08-25T08:55:22.227Z,2.93
2018-08-25T08:57:26.461Z,2.93
2018-08-25T08:59:30.326Z,2.50
2018-08-25T09:01:35.524Z,2.43
2018-08-25T09:03:39.674Z,2.87
2018-08-25T09:05:44.335Z,2.80
2018-08-25T09:07:48.353Z,2.30
2018-08-25T09:09:54.050Z,2.33
2018-08-25T09:11:58.299Z,1.90
2018-08-25T09:14:02.273Z,2.50
2018-08-25T09:16:06.638Z,2.57
2018-08-25T09:18:11.589Z,2.23
2018-08-25T09:20:16.290Z,2.50
2018-08-25T09:22:20.248Z,2.50
2018-08-25T09:24:25.885Z,2.60
2018-08-25T09:26:30.151Z,2.70
2018-08-25T09:28:34.633Z,2.70
2018-08-25T09:30:38.493Z,2.20
2018-08-25T09:32:42.318Z,2.67
2018-08-25T09:34:47.415Z,1.73
2018-08-25T09:39:20.036Z,2.07
2018-08-25T09:41:24.200Z,1.50
2018-08-25T09:43:28.343Z,2.17
2018-08-25T09:45:32.240Z,1.90
2018-08-25T09:47:36.218Z,1.87
2018-08-25T09:49:41.130Z,1.57
2018-08-25T09:51:47.313Z,1.20
2018-08-25T09:53:52.716Z,1.17
2018-08-25T09:55:56.668Z,1.00
2018-08-25T09:58:02.592Z,1.10
2018-08-25T10:00:08.905Z,0.90
2018-08-25T10:02:13.461Z,1.00
2018-08-25T10:04:17.715Z,1.10
2018-08-25T10:06:23.956Z,1.17
2018-08-25T10:08:28.817Z,0.93
2018-08-25T10:10:32.676Z,0.93
2018-08-25T10:12:36.510Z,0.90
2018-08-25T10:14:40.316Z,0.87
2018-08-25T10:16:45.202Z,0.90
2018-08-25T10:18:49.113Z,0.60
2018-08-25T10:20:53.083Z,0.80
2018-08-25T10:22:57.759Z,0.90
2018-08-25T10:25:02.263Z,0.80
2018-08-25T10:27:09.761Z,0.80
2018-08-25T10:29:16.230Z,0.63
2018-08-25T10:31:20.090Z,0.70
2018-08-25T10:33:25.306Z,0.60
2018-08-25T10:35:29.228Z,0.90
2018-08-25T10:37:35.202Z,0.90
2018-08-25T10:39:39.535Z,0.60
2018-08-25T10:41:43.531Z,0.90
2018-08-25T10:43:48.079Z,0.83
2018-08-25T10:45:52.324Z,1.00
2018-08-25T10:47:57.240Z,0.80
2018-08-25T10:50:01.066Z,1.00
2018-08-25T10:52:07.320Z,0.80
2018-08-25T10:54:14.530Z,0.70
2018-08-25T10:56:18.702Z,1.07
2018-08-25T10:58:22.858Z,0.90
2018-08-25T11:00:26.760Z,0.90
2018-08-25T11:02:30.604Z,0.90
2018-08-25T11:04:37.885Z,0.90
2018-08-25T11:06:44.226Z,0.80
2018-08-25T11:08:49.675Z,0.87
2018-08-25T11:10:53.901Z,0.87
2018-08-25T11:12:57.716Z,0.80
2018-08-25T11:15:01.602Z,0.90
2018-08-25T11:17:11.090Z,0.83
2018-08-25T11:19:16.152Z,0.87
2018-08-25T11:21:20.558Z,0.80
2018-08-25T11:23:27.128Z,0.70
2018-08-25T11:25:33.479Z,0.70
2018-08-25T11:27:40.124Z,0.73
2018-08-25T11:29:44.367Z,0.60
2018-08-25T11:31:49.924Z,0.53
2018-08-25T11:33:55.304Z,0.90
2018-08-25T11:36:05.093Z,0.80
2018-08-25T11:38:11.950Z,1.00
2018-08-25T11:40:18.291Z,0.80
2018-08-25T11:42:24.239Z,0.90
2018-08-25T11:44:29.632Z,0.97
2018-08-25T11:46:36.091Z,0.80
2018-08-25T11:48:40.496Z,1.10
2018-08-25T11:50:46.505Z,0.90
2018-08-25T11:52:51.753Z,0.70
2018-08-25T11:54:55.604Z,0.70
2018-08-25T11:56:59.451Z,0.80
2018-08-25T11:59:04.492Z,0.83
2018-08-25T12:01:09.003Z,0.57
2018-08-25T12:03:13.708Z,1.00
2018-08-25T12:05:17.922Z,1.10
2018-08-25T12:07:23.109Z,0.70
2018-08-25T12:09:26.983Z,0.80
2018-08-25T12:11:31.527Z,0.93
2018-08-25T12:13:35.502Z,0.93
2018-08-25T12:15:40.033Z,0.77
2018-08-25T12:17:44.925Z,0.87
2018-08-25T12:19:48.808Z,1.10
2018-08-25T12:21:53.907Z,0.87
2018-08-25T12:23:59.956Z,0.97
2018-08-25T12:26:05.414Z,0.77
2018-08-25T12:28:15.952Z,1.10
2018-08-25T12:30:33.804Z,1.07
2018-08-25T12:32:38.709Z,1.00
2018-08-25T12:34:43.560Z,0.70
2018-08-25T12:36:51.266Z,0.80
2018-08-25T12:38:55.531Z,1.20
2018-08-25T12:41:02.671Z,1.00
2018-08-25T12:43:09.407Z,0.80
2018-08-25T12:45:16.391Z,1.00
2018-08-25T12:47:25.558Z,0.90
2018-08-25T12:49:30.826Z,0.87
2018-08-25T12:51:35.469Z,1.00
2018-08-25T12:53:39.631Z,1.10
2018-08-25T12:55:45.487Z,1.27
2018-08-25T12:57:50.902Z,1.40
2018-08-25T12:59:54.770Z,1.20
2018-08-25T13:01:58.958Z,1.13
2018-08-25T13:04:04.508Z,1.23
2018-08-25T13:06:09.507Z,0.80
2018-08-25T13:08:13.280Z,1.20
2018-08-25T13:10:17.500Z,0.90
2018-08-25T13:12:22.171Z,1.10
2018-08-25T13:14:29.268Z,1.07
2018-08-25T13:16:33.946Z,1.20
2018-08-25T13:18:38.737Z,1.07
2018-08-25T13:20:42.721Z,0.90
2018-08-25T13:22:46.564Z,1.10
2018-08-25T13:24:50.570Z,1.10
2018-08-25T13:26:55.342Z,1.13
2018-08-25T13:29:00.720Z,1.00
2018-08-25T13:31:08.220Z,1.10
2018-08-25T13:33:12.947Z,1.10
2018-08-25T13:35:16.756Z,1.00
2018-08-25T13:37:20.550Z,1.00
2018-08-25T13:39:28.443Z,1.03
2018-08-25T13:41:34.505Z,1.03
2018-08-25T13:43:38.463Z,1.30
2018-08-25T13:45:44.233Z,1.00
2018-08-25T13:47:49.556Z,1.20
2018-08-25T13:49:53.503Z,1.00
2018-08-25T13:51:58.514Z,1.00
2018-08-25T13:54:03.402Z,0.93
2018-08-25T13:56:07.662Z,0.77
2018-08-25T13:58:12.588Z,0.90
2018-08-25T14:00:17.647Z,0.83
2018-08-25T14:02:21.496Z,0.97
2018-08-25T14:04:25.350Z,1.03
2018-08-25T14:06:30.517Z,1.00
2018-08-25T14:08:34.394Z,1.10
2018-08-25T14:10:39.740Z,1.00
2018-08-25T14:12:43.863Z,0.83
2018-08-25T14:14:49.063Z,0.90
2018-08-25T14:16:53.064Z,1.10
2018-08-25T14:18:57.312Z,1.05
2018-08-25T14:21:02.335Z,0.90
2018-08-25T14:23:06.815Z,0.93
2018-08-25T14:25:11.045Z,0.98
2018-08-25T14:27:15.039Z,1.20
2018-08-25T14:29:19.584Z,1.00
2018-08-25T14:31:24.146Z,1.17
2018-08-25T14:33:31.313Z,0.80
2018-08-25T14:35:37.264Z,1.13
2018-08-25T14:37:43.241Z,0.97
2018-08-25T14:39:48.571Z,1.20
2018-08-25T14:41:53.739Z,1.20
2018-08-25T14:43:57.827Z,1.20
2018-08-25T14:46:04.676Z,1.10
2018-08-25T14:48:13.340Z,1.10
2018-08-25T14:50:17.241Z,1.10
2018-08-25T14:52:21.318Z,1.10
2018-08-25T14:54:25.560Z,0.80
2018-08-25T14:56:29.761Z,1.13
2018-08-25T14:58:33.701Z,1.03
2018-08-25T15:00:38.369Z,0.97
2018-08-25T15:02:42.926Z,1.17
2018-08-25T15:04:46.802Z,0.90
2018-08-25T15:06:51.016Z,1.10
2018-08-25T15:08:58.247Z,1.10
2018-08-25T15:11:02.504Z,1.00
2018-08-25T15:13:14.416Z,1.37
2018-08-25T15:15:21.339Z,0.97
2018-08-25T15:17:27.059Z,1.10
2018-08-25T15:19:34.848Z,1.03
2018-08-25T15:21:40.056Z,1.00
2018-08-25T15:23:44.616Z,1.03
2018-08-25T15:25:49.720Z,1.17
2018-08-25T15:27:55.249Z,1.13
2018-08-25T15:30:00.137Z,1.17
2018-08-25T15:32:05.351Z,1.03
2018-08-25T15:34:09.462Z,1.00
2018-08-25T15:36:15.499Z,1.23
2018-08-25T15:38:24.211Z,1.10
2018-08-25T15:40:30.051Z,1.30
2018-08-25T15:42:35.296Z,1.50
2018-08-25T15:44:39.443Z,1.50
2018-08-25T15:46:49.567Z,1.00
2018-08-25T15:48:56.208Z,1.33
2018-08-25T15:51:00.090Z,1.40
2018-08-25T15:53:05.419Z,1.33
2018-08-25T15:55:09.282Z,1.27
2018-08-25T15:57:20.204Z,1.10
2018-08-25T15:59:24.366Z,1.20
2018-08-25T16:01:31.048Z,1.37
2018-08-25T16:03:40.007Z,1.40
2018-08-25T16:05:47.407Z,1.27
2018-08-25T16:07:52.674Z,1.07
2018-08-25T16:09:57.474Z,1.20
2018-08-25T16:12:02.483Z,1.17
2018-08-25T16:14:16.010Z,1.50
2018-08-25T16:16:29.983Z,1.50
2018-08-25T16:18:35.197Z,1.53
2018-08-25T16:20:39.901Z,1.50
2018-08-25T16:22:44.244Z,1.30
2018-08-25T16:24:52.536Z,1.30
2018-08-25T16:26:57.839Z,1.03
2018-08-25T16:29:05.243Z,1.20
2018-08-25T16:31:09.487Z,1.23
2018-08-25T16:33:14.830Z,1.47
2018-08-25T16:35:21.734Z,1.03
2018-08-25T16:37:27.967Z,1.10
2018-08-25T16:39:34.907Z,1.47
2018-08-25T16:41:42.758Z,1.10
2018-08-25T16:43:48.033Z,1.00
2018-08-25T16:45:53.564Z,1.27
2018-08-25T16:48:00.101Z,1.10
2018-08-25T16:50:05.285Z,1.10
2018-08-25T16:52:11.047Z,1.10
2018-08-25T16:54:16.323Z,1.10
2018-08-25T16:56:24.089Z,1.07
2018-08-25T16:58:33.447Z,1.23
2018-08-25T17:00:37.400Z,1.00
2018-08-25T17:02:42.741Z,1.10
2018-08-25T17:04:46.833Z,1.10
2018-08-25T17:06:53.673Z,1.23
2018-08-25T17:08:59.321Z,1.30
2018-08-25T17:11:04.724Z,1.20
2018-08-25T17:13:10.607Z,1.27
2018-08-25T17:15:15.282Z,1.00
2018-08-25T17:20:32.949Z,1.20
2018-08-25T17:25:35.855Z,1.50
2018-08-25T17:27:46.909Z,1.40
2018-08-25T17:30:09.163Z,0.93
2018-08-25T17:33:05.755Z,1.20
2018-08-25T17:35:52.205Z,1.10
2018-08-25T17:40:11.161Z,1.20
2018-08-25T17:42:18.590Z,1.30
2018-08-25T17:46:36.330Z,1.20
2018-08-25T17:48:53.462Z,1.40
2018-08-25T17:51:03.696Z,1.10
2018-08-25T17:53:22.974Z,1.20
2018-08-25T17:55:28.068Z,1.27
2018-08-25T17:57:32.553Z,1.33
2018-08-25T17:59:39.588Z,1.60
2018-08-25T18:01:50.849Z,1.40
2018-08-25T18:03:55.758Z,1.40
2018-08-25T18:06:11.311Z,1.10
2018-08-25T18:10:29.154Z,1.00
2018-08-25T18:14:59.714Z,1.27
2018-08-25T18:17:08.387Z,1.20
2018-08-25T18:19:17.741Z,1.17
2018-08-25T18:21:24.588Z,0.97
2018-08-25T18:23:28.629Z,1.17
2018-08-25T18:25:35.535Z,1.20
2018-08-25T18:27:42.215Z,1.23
2018-08-25T18:29:47.496Z,1.10
2018-08-25T18:31:58.585Z,1.00
2018-08-25T18:34:03.771Z,0.90
2018-08-25T18:36:08.274Z,1.20
2018-08-25T18:38:12.459Z,1.03
2018-08-25T18:40:16.321Z,0.87
2018-08-25T18:42:20.645Z,0.90
2018-08-25T18:44:26.124Z,1.00
2018-08-25T18:46:29.983Z,0.80
2018-08-25T18:48:33.992Z,0.90
2018-08-25T18:50:39.214Z,0.80
2018-08-25T18:52:46.712Z,0.80
2018-08-25T18:54:50.697Z,0.93
2018-08-25T18:56:59.719Z,0.97
2018-08-25T18:59:07.159Z,0.90
2018-08-25T19:01:12.363Z,1.00
2018-08-25T19:03:18.194Z,1.07
2018-08-25T19:05:23.003Z,0.93
2018-08-25T19:07:27.632Z,1.07
2018-08-25T19:09:35.422Z,1.20
2018-08-25T19:11:40.685Z,1.10
2018-08-25T19:13:45.524Z,1.00
2018-08-25T19:15:50.356Z,1.00
2018-08-25T19:17:54.277Z,1.20
2018-08-25T19:19:59.760Z,1.30
2018-08-25T19:22:06.742Z,1.13
2018-08-25T19:24:12.765Z,1.20
2018-08-25T19:26:18.745Z,1.07
2018-08-25T19:28:23.647Z,1.30
2018-08-25T19:30:29.251Z,1.50
2018-08-25T19:32:33.844Z,1.60
2018-08-25T19:34:41.268Z,1.60
2018-08-25T19:36:48.780Z,1.50
2018-08-25T19:38:58.067Z,1.40
2018-08-25T19:41:04.387Z,1.50
2018-08-25T19:43:08.720Z,1.83
2018-08-25T19:45:15.011Z,1.50
2018-08-25T19:47:21.056Z,1.40
2018-08-25T19:49:25.571Z,1.50
2018-08-25T19:51:30.172Z,1.33
2018-08-25T19:53:34.340Z,1.50
2018-08-25T19:55:41.600Z,1.70
2018-08-25T19:57:45.848Z,1.40
2018-08-25T19:59:54.917Z,1.63
2018-08-25T20:02:02.686Z,1.50
2018-08-25T20:04:08.069Z,1.57
2018-08-25T20:06:12.023Z,1.33
2018-08-25T20:08:17.492Z,1.43
2018-08-25T20:10:21.490Z,1.57
2018-08-25T20:12:31.397Z,1.70
2018-08-25T20:14:36.313Z,1.40
2018-08-25T20:16:40.186Z,1.80
2018-08-25T20:18:45.044Z,1.43
2018-08-25T20:20:49.921Z,1.60
2018-08-25T20:22:55.299Z,1.40
2018-08-25T20:25:00.036Z,1.37
2018-08-25T20:27:04.072Z,1.40
2018-08-25T20:29:08.373Z,1.40
2018-08-25T20:31:22.617Z,1.40
2018-08-25T20:35:42.482Z,1.37
2018-08-25T20:37:46.831Z,1.47
2018-08-25T20:39:53.528Z,1.63
2018-08-25T20:41:58.486Z,1.20
2018-08-25T20:44:03.915Z,1.60
2018-08-25T20:46:07.765Z,1.43
2018-08-25T20:48:13.088Z,1.03
2018-08-25T20:50:17.277Z,1.50
2018-08-25T20:52:22.235Z,1.60
2018-08-25T20:54:27.250Z,1.40
2018-08-25T20:56:33.513Z,1.17
2018-08-25T20:58:37.698Z,1.40
2018-08-25T21:00:42.464Z,1.53
2018-08-25T21:02:48.024Z,1.40
2018-08-25T21:04:55.677Z,1.20
2018-08-25T21:07:01.558Z,1.50
2018-08-25T21:09:12.153Z,1.23
2018-08-25T21:11:18.241Z,1.23
2018-08-25T21:13:23.624Z,1.10
2018-08-25T21:15:29.256Z,1.40
2018-08-25T21:17:33.920Z,1.20
2018-08-25T21:19:40.553Z,1.37
2018-08-25T21:21:46.302Z,1.20
2018-08-25T21:23:50.573Z,1.30
2018-08-25T21:25:55.877Z,1.30
2018-08-25T21:28:00.589Z,1.67
2018-08-25T21:30:08.110Z,1.50
2018-08-25T21:32:12.993Z,1.50
2018-08-25T21:34:17.202Z,1.57
2018-08-25T21:36:21.906Z,1.13
2018-08-25T21:38:26.624Z,1.20
2018-08-25T21:40:32.498Z,1.10
2018-08-25T21:42:37.332Z,1.10
2018-08-25T21:44:41.718Z,1.23
2018-08-25T21:46:47.092Z,1.07
2018-08-25T21:48:51.403Z,1.23
2018-08-25T21:50:59.235Z,1.10
2018-08-25T21:53:05.247Z,1.40
2018-08-25T21:55:09.183Z,1.50
2018-08-25T21:57:13.751Z,1.50
2018-08-25T21:59:19.018Z,1.40
2018-08-25T22:01:24.187Z,1.40
2018-08-25T22:03:30.275Z,1.33
2018-08-25T22:05:35.307Z,1.50
2018-08-25T22:07:40.202Z,1.40
2018-08-25T22:09:44.302Z,1.10
2018-08-25T22:11:49.702Z,1.30
2018-08-25T22:13:53.660Z,1.50
2018-08-25T22:15:59.396Z,1.60
2018-08-25T22:18:04.319Z,1.50
2018-08-25T22:20:08.301Z,1.20
2018-08-25T22:22:12.305Z,1.00
2018-08-25T22:24:16.971Z,1.40
2018-08-25T22:26:20.874Z,1.63
2018-08-25T22:28:26.705Z,1.30
2018-08-25T22:30:33.408Z,1.50
2018-08-25T22:32:37.288Z,1.40
2018-08-25T22:34:43.301Z,1.10
2018-08-25T22:36:47.663Z,1.47
2018-08-25T22:38:55.300Z,1.43
2018-08-25T22:41:00.574Z,1.40
2018-08-25T22:43:04.534Z,1.43
2018-08-25T22:49:47.826Z,1.27
2018-08-25T22:51:53.609Z,1.60
2018-08-25T22:53:59.988Z,1.33
2018-08-25T22:56:04.731Z,1.27
2018-08-25T22:58:08.753Z,1.30
2018-08-25T23:00:15.541Z,1.40
2018-08-25T23:02:21.547Z,1.33
2018-08-25T23:04:26.223Z,1.40
2018-08-25T23:06:31.401Z,1.80
2018-08-25T23:08:45.509Z,1.23
2018-08-25T23:10:49.625Z,1.60
2018-08-25T23:12:53.525Z,1.57
2018-08-25T23:15:00.108Z,1.50
2018-08-25T23:17:04.730Z,1.23
2018-08-25T23:19:12.135Z,1.30
2018-08-25T23:21:16.182Z,1.57
2018-08-25T23:23:22.109Z,1.30
2018-08-25T23:25:26.468Z,1.33
2018-08-25T23:27:30.521Z,1.33
2018-08-25T23:29:34.712Z,1.60
2018-08-25T23:31:40.440Z,1.60
2018-08-25T23:33:44.239Z,1.67
2018-08-25T23:35:51.731Z,1.43
2018-08-25T23:37:57.957Z,1.33
2018-08-25T23:40:02.643Z,1.50
2018-08-25T23:42:06.719Z,1.40
2018-08-25T23:44:12.279Z,1.50
2018-08-25T23:46:16.114Z,1.53
2018-08-25T23:48:21.266Z,1.47
2018-08-25T23:50:26.170Z,1.60
2018-08-25T23:52:34.343Z,1.40
2018-08-25T23:54:39.759Z,1.90
2018-08-25T23:56:44.406Z,1.60
2018-08-25T23:58:49.268Z,1.37
